KIAD/IAD METAR and TAF weather

Enter ICAO airport designator
Station Type Date Time Source
KIAD METAR 2019/10/21 04:52 UTC NOAA

KIAD 210452Z 35010KT 10SM OVC011 12/10 A3000 RMK AO2 SLP158 T01220100 401390111 $


Station Type Date Time Source
KIAD Decoded METAR 2019/10/21 04:52 UTC NOAA

DULLES INTERNATIONAL AIRPORT, VA, United States (KIAD) 38-56N 077-27W 93M
Oct 21, 2019 - 12:52 AM EDT / 2019.10.21 0452 UTC
Wind: from the N (350 degrees) at 12 MPH (10 KT):0
Visibility: 10 mile(s):0
Sky conditions: overcast
Temperature: 54.0 F (12.2 C)
Dew Point: 50.0 F (10.0 C)
Relative Humidity: 86%
Pressure (altimeter): 30 in. Hg (1015 hPa)
ob: KIAD 210452Z 35010KT 10SM OVC011 12/10 A3000 RMK AO2 SLP158 T01220100 401390111
cycle: 5

Station Type Date Time Source
KIAD TAF 2019/10/21 02:30 UTC NOAA

TAF
AMD KIAD 210229Z 2102/2206 35010KT P6SM BKN008 OVC020
FM210300 34005KT P6SM BKN008 OVC020
FM210800 VRB03KT 3SM BR BKN005
FM211400 02005KT P6SM BKN015
FM211600 10005KT P6SM SCT040 SCT250
FM220100 14005KT P6SM SCT030 BKN150

Example: see airport list